Time;durP1;ratioP1;P1;durP2;ratioP2;P2;SDS_P1;SDS_P2;PMS_P1;PMS_P2;Temp;Humidity;BMP_temperature;BMP_pressure;BME280_temperature;BME280_humidity;BME280_pressure;Samples;Min_cycle;Max_cycle;Signal;HPM_P1;HPM_P2
2021/06/04 00:01:37;;;;;;;2.50;1.27;;;;;;;12.36;67.25;100435.91;4786662;29;20054;-78
2021/06/04 00:04:03;;;;;;;5.20;1.63;;;;;;;12.39;67.07;100434.75;4794210;29;20079;-78
2021/06/04 00:06:29;;;;;;;3.38;1.27;;;;;;;12.31;67.15;100447.16;4793186;29;20054;-80
2021/06/04 00:08:56;;;;;;;2.90;1.08;;;;;;;12.29;67.26;100441.03;4784630;29;20541;-79
2021/06/04 00:11:27;;;;;;;1.55;1.17;;;;;;;12.30;66.91;100437.31;4796226;29;20055;-77
2021/06/04 00:13:58;;;;;;;2.20;1.38;;;;;;;12.29;67.06;100435.63;4797697;29;20100;-81
2021/06/04 00:16:31;;;;;;;1.80;1.42;;;;;;;12.25;67.22;100427.91;4797396;29;20119;-78
2021/06/04 00:18:59;;;;;;;2.70;1.60;;;;;;;12.20;67.08;100436.47;4789502;29;20046;-79
2021/06/04 00:21:31;;;;;;;2.25;1.67;;;;;;;12.26;66.83;100440.47;4790419;29;20066;-77
2021/06/04 00:23:59;;;;;;;3.88;1.88;;;;;;;12.25;67.15;100439.63;4787112;29;20504;-78
2021/06/04 00:26:27;;;;;;;2.70;1.58;;;;;;;12.25;67.10;100444.19;4788345;29;20415;-80
2021/06/04 00:28:53;;;;;;;2.65;1.77;;;;;;;12.26;66.40;100446.75;4798706;29;20049;-78
2021/06/04 00:31:21;;;;;;;2.78;1.58;;;;;;;12.23;66.93;100448.88;4798086;29;20055;-78
2021/06/04 00:33:48;;;;;;;1.98;1.50;;;;;;;12.18;67.45;100443.91;4787096;29;20039;-79
2021/06/04 00:36:14;;;;;;;3.45;1.70;;;;;;;12.15;67.17;100438.75;4795305;29;20078;-78
2021/06/04 00:38:40;;;;;;;2.00;1.50;;;;;;;12.16;66.99;100440.44;4782957;29;20115;-81
2021/06/04 00:41:30;;;;;;;1.67;1.52;;;;;;;12.15;67.18;100444.16;4793970;29;20058;-80
2021/06/04 00:43:58;;;;;;;3.65;1.60;;;;;;;12.20;66.48;100441.88;4769799;29;20083;-77
2021/06/04 00:46:26;;;;;;;2.55;1.80;;;;;;;12.12;67.38;100449.88;4819652;29;20729;-78
2021/06/04 00:48:53;;;;;;;3.15;1.70;;;;;;;12.10;67.04;100446.44;4795329;29;20047;-78
2021/06/04 00:51:30;;;;;;;3.05;1.70;;;;;;;12.04;67.60;100447.00;4790244;29;20442;-77
2021/06/04 00:54:00;;;;;;;2.28;1.67;;;;;;;12.12;66.83;100458.00;4781549;29;20043;-77
2021/06/04 00:56:28;;;;;;;3.33;2.15;;;;;;;12.07;66.84;100469.28;4809979;29;20433;-78
2021/06/04 00:58:55;;;;;;;2.05;1.45;;;;;;;12.04;67.40;100463.28;4777774;29;20035;-78
2021/06/04 01:01:24;;;;;;;3.00;2.30;;;;;;;12.07;67.00;100466.56;4787418;29;20058;-78
2021/06/04 01:04:05;;;;;;;3.83;1.80;;;;;;;12.11;66.43;100464.44;4796004;29;20054;-78
2021/06/04 01:06:43;;;;;;;4.25;1.60;;;;;;;12.06;66.95;100474.81;4789228;29;20043;-77
2021/06/04 01:09:11;;;;;;;2.05;1.30;;;;;;;12.10;66.58;100461.84;4795790;29;20049;-79
2021/06/04 01:11:57;;;;;;;1.88;1.05;;;;;;;12.13;66.31;100473.25;4827638;29;20505;-80
2021/06/04 01:14:27;;;;;;;2.00;1.10;;;;;;;12.20;65.58;100474.41;4804488;29;20051;-77
2021/06/04 01:17:15;;;;;;;1.27;1.05;;;;;;;12.20;65.55;100479.81;4785914;29;20501;-78
2021/06/04 01:19:51;;;;;;;2.53;1.02;;;;;;;12.16;65.78;100483.81;4770232;29;20042;-79
2021/06/04 01:22:32;;;;;;;2.25;1.00;;;;;;;12.21;65.37;100491.53;4791593;29;20092;-77
2021/06/04 01:25:36;;;;;;;1.27;1.00;;;;;;;12.21;65.40;100484.28;4794313;29;20047;-78
2021/06/04 01:28:10;;;;;;;2.60;0.90;;;;;;;12.18;65.35;100491.84;4739143;29;20067;-78
2021/06/04 01:30:51;;;;;;;0.90;0.90;;;;;;;12.23;65.03;100490.41;4779316;29;20507;-76
2021/06/04 01:33:23;;;;;;;1.00;0.90;;;;;;;12.27;65.27;100497.25;4794661;29;20077;-79
2021/06/04 01:36:00;;;;;;;1.23;0.93;;;;;;;12.26;65.16;100484.69;4796305;29;20528;-79
2021/06/04 01:38:32;;;;;;;2.10;1.00;;;;;;;12.24;65.05;100485.81;4780832;29;20089;-77
2021/06/04 01:41:02;;;;;;;1.15;0.90;;;;;;;12.21;65.46;100486.09;4789728;29;20039;-79
2021/06/04 01:43:37;;;;;;;4.53;0.93;;;;;;;12.19;65.37;100488.97;4790919;29;20046;-78
2021/06/04 01:46:14;;;;;;;1.60;1.10;;;;;;;12.10;65.63;100483.53;4819023;29;20102;-80
2021/06/04 01:48:45;;;;;;;0.90;0.80;;;;;;;12.02;65.48;100489.66;4773328;29;20095;-78
2021/06/04 01:51:24;;;;;;;1.00;0.85;;;;;;;12.05;65.50;100492.09;4791818;29;20346;-76
2021/06/04 01:54:00;;;;;;;1.13;0.90;;;;;;;12.03;65.74;100483.25;4778893;29;20058;-79
2021/06/04 01:56:36;;;;;;;1.05;0.90;;;;;;;11.98;65.71;100480.09;4776723;30;20051;-79
2021/06/04 01:59:31;;;;;;;2.75;1.00;;;;;;;12.02;65.66;100492.34;4794513;29;20047;-77
2021/06/04 02:02:09;;;;;;;1.00;0.85;;;;;;;12.04;65.62;100490.38;4783442;29;20050;-79
2021/06/04 02:04:47;;;;;;;2.08;1.00;;;;;;;12.04;65.40;100490.38;4824112;29;20054;-79
2021/06/04 02:07:16;;;;;;;1.55;1.10;;;;;;;12.01;65.59;100496.94;4775765;29;20042;-78
2021/06/04 02:09:44;;;;;;;1.10;0.98;;;;;;;12.00;65.60;100489.81;4795403;29;20509;-77
2021/06/04 02:12:23;;;;;;;2.35;1.23;;;;;;;12.03;65.46;100494.09;4792275;29;20134;-78
2021/06/04 02:15:06;;;;;;;0.83;0.83;;;;;;;12.02;65.35;100487.78;4825561;29;20042;-78
2021/06/04 02:17:52;;;;;;;1.27;0.90;;;;;;;12.07;65.39;100496.38;4798130;29;20811;-78
2021/06/04 02:20:30;;;;;;;1.40;1.00;;;;;;;12.08;65.11;100502.66;4795565;29;20154;-77
2021/06/04 02:23:15;;;;;;;2.20;1.10;;;;;;;12.16;65.63;100496.53;4792487;29;20549;-78
2021/06/04 02:25:53;;;;;;;6.82;2.30;;;;;;;12.24;65.30;100502.09;4779231;29;20051;-79
2021/06/04 02:28:31;;;;;;;1.40;0.90;;;;;;;12.30;64.81;100502.38;4766749;30;20103;-78
2021/06/04 02:31:22;;;;;;;1.42;0.90;;;;;;;12.33;64.74;100497.69;4796146;29;20074;-79
2021/06/04 02:34:18;;;;;;;1.75;1.30;;;;;;;12.33;64.56;100501.25;4810902;29;20050;-78
2021/06/04 02:36:51;;;;;;;1.92;1.20;;;;;;;12.41;64.43;100503.25;4824961;29;20525;-78
2021/06/04 02:39:22;;;;;;;2.35;1.02;;;;;;;12.45;64.09;100494.69;4789565;29;20477;-78
2021/06/04 02:42:11;;;;;;;1.75;1.10;;;;;;;12.54;64.00;100503.81;4797793;29;20055;-77
2021/06/04 02:45:03;;;;;;;1.60;1.10;;;;;;;12.61;63.70;100513.09;4751962;29;20184;-77
2021/06/04 02:47:37;;;;;;;1.45;1.15;;;;;;;12.67;63.76;100504.38;4791203;29;20522;-77
2021/06/04 02:50:12;;;;;;;2.45;1.00;;;;;;;12.81;63.32;100518.53;4797457;29;20047;-79
2021/06/04 02:52:42;;;;;;;1.27;1.02;;;;;;;12.98;62.57;100513.22;4796920;29;20075;-77
2021/06/04 02:55:23;;;;;;;2.60;1.10;;;;;;;13.17;62.22;100511.47;4790567;29;20043;-77
2021/06/04 02:57:49;;;;;;;1.20;1.10;;;;;;;13.30;62.37;100514.72;4796688;29;20039;-80
2021/06/04 03:00:23;;;;;;;3.60;1.50;;;;;;;13.49;61.63;100516.53;4796596;29;20153;-78
2021/06/04 03:02:50;;;;;;;;;;;;;;;13.63;60.85;100517.91;4815077;29;20434;-79
2021/06/04 03:05:26;;;;;;;1.42;1.00;;;;;;;13.72;59.95;100522.44;4792645;29;19929;-78
2021/06/04 03:07:53;;;;;;;2.55;1.10;;;;;;;13.81;59.60;100507.09;4812807;29;20066;-77
2021/06/04 03:10:21;;;;;;;1.88;1.20;;;;;;;13.99;59.80;100518.88;4809898;29;20194;-78
2021/06/04 03:12:48;;;;;;;0.98;0.85;;;;;;;14.13;58.78;100504.75;4808360;29;20099;-78
2021/06/04 03:15:29;;;;;;;1.55;1.30;;;;;;;14.32;58.68;100516.50;4810820;29;20074;-80
2021/06/04 03:17:57;;;;;;;1.42;1.10;;;;;;;14.57;58.18;100518.50;4794048;29;20659;-78
2021/06/04 03:20:33;;;;;;;8.30;1.80;;;;;;;14.65;57.49;100518.56;4797947;29;20051;-77
2021/06/04 03:22:59;;;;;;;1.15;0.98;;;;;;;14.83;56.82;100521.28;4795329;29;20115;-80
2021/06/04 03:25:33;;;;;;;1.95;0.90;;;;;;;15.02;57.01;100511.22;4794533;29;20063;-78
2021/06/04 03:28:01;;;;;;;2.23;1.10;;;;;;;15.19;55.99;100519.34;4814530;29;20234;-81
2021/06/04 03:30:35;;;;;;;1.00;0.70;;;;;;;15.42;55.24;100524.25;4792219;29;20078;-78
2021/06/04 03:33:03;;;;;;;1.02;0.90;;;;;;;15.63;54.86;100516.53;4812950;29;20375;-78
2021/06/04 03:35:31;;;;;;;1.42;0.80;;;;;;;15.73;55.08;100523.78;4818699;29;20102;-78
2021/06/04 03:37:58;;;;;;;1.45;0.90;;;;;;;15.79;54.33;100520.38;4796208;29;20222;-79
2021/06/04 03:40:27;;;;;;;1.48;0.98;;;;;;;16.02;53.67;100516.06;4795971;29;20078;-79
2021/06/04 03:42:55;;;;;;;0.93;0.90;;;;;;;16.19;53.47;100521.56;4795571;29;20047;-79
2021/06/04 03:45:30;;;;;;;2.78;1.00;;;;;;;16.50;52.62;100524.53;4766265;29;20358;-78
2021/06/04 03:47:57;;;;;;;2.35;1.10;;;;;;;16.73;52.16;100520.09;4795074;29;20055;-79
2021/06/04 03:50:23;;;;;;;3.05;1.10;;;;;;;16.87;51.89;100521.34;4797502;29;20051;-79
2021/06/04 03:52:49;;;;;;;0.90;0.90;;;;;;;16.98;51.07;100518.28;4799045;29;20146;-80
2021/06/04 03:55:18;;;;;;;1.45;1.00;;;;;;;17.33;50.96;100518.91;4818867;29;20065;-78
2021/06/04 03:57:48;;;;;;;1.27;0.98;;;;;;;17.52;50.32;100520.41;4793753;29;20050;-77
2021/06/04 04:00:23;;;;;;;1.25;1.10;;;;;;;17.78;50.08;100517.47;4801031;29;20158;-79
2021/06/04 04:02:51;;;;;;;1.23;1.05;;;;;;;17.84;48.93;100511.25;4786754;29;20043;-77
2021/06/04 04:05:17;;;;;;;2.58;0.90;;;;;;;18.21;48.92;100515.19;4800371;29;20062;-82
2021/06/04 04:07:43;;;;;;;0.90;0.90;;;;;;;18.37;47.91;100509.63;4792543;29;20065;-80
2021/06/04 04:10:11;;;;;;;1.95;0.95;;;;;;;18.48;47.02;100517.41;4794042;29;20051;-81
2021/06/04 04:12:37;;;;;;;1.55;1.02;;;;;;;18.47;47.13;100510.25;4787822;29;20039;-78
2021/06/04 04:15:17;;;;;;;1.50;1.10;;;;;;;18.67;47.49;100507.03;4796122;29;20121;-82
2021/06/04 04:17:46;;;;;;;2.53;1.00;;;;;;;18.95;46.87;100510.09;4795956;29;20043;-77
2021/06/04 04:20:15;;;;;;;2.78;1.20;;;;;;;19.02;46.31;100514.63;4772756;29;20051;-78
2021/06/04 04:22:41;;;;;;;1.25;0.80;;;;;;;19.30;45.47;100505.78;4797512;29;20049;-79
2021/06/04 04:25:08;;;;;;;1.33;1.00;;;;;;;19.54;44.95;100506.59;4786429;29;20537;-79
2021/06/04 04:27:34;;;;;;;1.20;1.10;;;;;;;19.72;44.92;100493.38;4780839;29;20112;-78
2021/06/04 04:30:00;;;;;;;1.35;1.25;;;;;;;19.96;45.16;100500.44;4808098;29;20084;-79
2021/06/04 04:32:27;;;;;;;3.95;1.50;;;;;;;20.00;44.34;100496.28;4779304;29;20125;-80
2021/06/04 04:34:54;;;;;;;3.17;1.20;;;;;;;20.21;43.56;100482.56;4826112;29;20051;-79
2021/06/04 04:37:21;;;;;;;2.25;1.20;;;;;;;20.45;42.78;100484.13;4786624;29;20163;-80
2021/06/04 04:39:47;;;;;;;3.60;1.35;;;;;;;20.62;42.57;100492.13;4813334;29;20042;-77
2021/06/04 04:42:17;;;;;;;3.80;1.27;;;;;;;20.64;42.91;100488.16;4807443;29;20053;-78
2021/06/04 04:44:46;;;;;;;2.47;1.25;;;;;;;20.69;42.13;100490.28;4786566;29;20153;-80
2021/06/04 04:47:15;;;;;;;2.28;1.10;;;;;;;20.85;41.56;100484.53;4787131;29;20045;-77
2021/06/04 04:49:41;;;;;;;2.45;1.30;;;;;;;21.15;41.82;100490.72;4786188;29;20515;-81
2021/06/04 04:52:11;;;;;;;1.33;1.20;;;;;;;21.52;40.11;100490.56;4786646;29;20474;-81
2021/06/04 04:54:43;;;;;;;3.80;1.33;;;;;;;21.35;40.45;100490.91;4773061;30;20136;-80
2021/06/04 04:57:09;;;;;;;1.77;1.20;;;;;;;21.50;40.46;100496.28;4788416;29;20063;-79
2021/06/04 04:59:35;;;;;;;4.53;1.27;;;;;;;21.58;39.48;100495.28;4792319;29;20055;-79
2021/06/04 05:02:02;;;;;;;2.08;1.15;;;;;;;21.90;39.26;100488.22;4787184;29;20103;-80
2021/06/04 05:04:29;;;;;;;13.25;2.85;;;;;;;21.88;39.49;100480.19;4814997;29;20553;-81
2021/06/04 05:06:55;;;;;;;5.40;1.63;;;;;;;22.21;39.30;100485.00;4756952;29;20079;-80
2021/06/04 05:09:21;;;;;;;1.33;1.23;;;;;;;22.53;39.23;100482.56;4784016;29;20047;-82
2021/06/04 05:11:48;;;;;;;3.13;1.35;;;;;;;22.48;38.43;100487.81;4820981;29;20110;-79
2021/06/04 05:14:15;;;;;;;1.50;1.13;;;;;;;22.36;37.99;100482.91;4784788;29;20064;-78
2021/06/04 05:16:40;;;;;;;2.28;1.25;;;;;;;22.20;38.43;100471.44;4788522;29;20051;-80
2021/06/04 05:19:07;;;;;;;3.53;1.30;;;;;;;22.18;38.13;100479.91;4788267;29;20437;-81
2021/06/04 05:21:34;;;;;;;5.50;1.60;;;;;;;22.53;37.71;100483.41;4786861;29;20058;-78
2021/06/04 05:24:03;;;;;;;4.07;1.40;;;;;;;22.48;37.83;100468.53;4788273;29;20490;-80
2021/06/04 05:26:28;;;;;;;2.30;1.65;;;;;;;23.11;37.56;100491.13;4773326;29;20043;-78
2021/06/04 05:28:54;;;;;;;2.10;1.40;;;;;;;23.39;37.15;100492.78;4789557;29;20051;-79
2021/06/04 05:31:20;;;;;;;4.80;2.20;;;;;;;23.38;36.99;100491.94;4787338;29;20051;-80
2021/06/04 05:33:50;;;;;;;2.50;1.50;;;;;;;23.71;36.13;100483.59;4785974;29;20054;-79
2021/06/04 05:36:32;;;;;;;2.25;1.42;;;;;;;24.15;35.62;100481.94;4792095;29;20775;-79
2021/06/04 05:39:07;;;;;;;3.58;1.52;;;;;;;24.09;35.89;100488.34;4795819;29;20035;-82
2021/06/04 05:41:33;;;;;;;2.90;1.52;;;;;;;24.27;36.13;100488.47;4792032;29;20054;-81
2021/06/04 05:43:58;;;;;;;2.30;1.27;;;;;;;24.78;34.29;100481.16;4786459;29;20530;-82
2021/06/04 05:46:25;;;;;;;5.78;1.80;;;;;;;24.84;34.25;100490.50;4787661;29;20066;-81
2021/06/04 05:48:51;;;;;;;1.65;1.40;;;;;;;24.49;34.54;100482.63;4784967;29;20423;-80
2021/06/04 05:51:44;;;;;;;2.67;1.50;;;;;;;24.83;34.30;100486.88;4783480;29;20120;-83
2021/06/04 05:57:41;;;;;;;1.67;1.40;;;;;;;25.36;33.09;100471.75;4800487;29;20362;-87
2021/06/04 06:00:24;;;;;;;3.10;1.30;;;;;;;25.83;33.40;100485.97;4763710;29;20048;-88
2021/06/04 06:02:56;;;;;;;2.65;1.40;;;;;;;26.11;32.92;100475.19;4930493;24;20103;-86
2021/06/04 06:05:22;;;;;;;3.55;1.55;;;;;;;25.71;32.95;100478.41;4912658;24;20082;-85
2021/06/04 06:07:50;;;;;;;2.60;1.65;;;;;;;25.55;32.79;100475.38;4768045;30;20024;-85
2021/06/04 06:10:16;;;;;;;2.30;1.50;;;;;;;25.85;31.91;100476.38;4802106;24;20083;-83
2021/06/04 06:12:47;;;;;;;3.05;1.63;;;;;;;25.58;32.54;100474.94;4770453;30;20055;-86
2021/06/04 06:15:14;;;;;;;1.50;1.40;;;;;;;25.68;32.07;100475.25;4896741;24;20062;-87
2021/06/04 06:17:45;;;;;;;6.57;1.98;;;;;;;26.46;31.13;100460.66;4828170;29;20028;-86
2021/06/04 06:20:15;;;;;;;2.47;1.63;;;;;;;26.59;30.63;100471.56;4800706;29;20034;-86
2021/06/04 06:22:44;;;;;;;6.70;2.10;;;;;;;26.86;30.93;100471.13;4823983;29;20102;-85
2021/06/04 06:25:15;;;;;;;3.25;1.60;;;;;;;27.24;31.25;100465.19;4818870;29;20078;-86
2021/06/04 06:27:44;;;;;;;4.32;1.63;;;;;;;27.17;30.74;100462.53;4814730;29;20058;-86
2021/06/04 06:30:20;;;;;;;2.85;1.70;;;;;;;27.30;30.53;100480.03;4805073;29;20045;-85
2021/06/04 06:32:48;;;;;;;3.45;1.60;;;;;;;27.94;29.60;100464.28;4785495;29;20050;-83
2021/06/04 06:35:22;;;;;;;4.47;1.77;;;;;;;28.11;28.80;100467.09;4821778;29;20061;-86
2021/06/04 06:37:48;;;;;;;6.93;2.00;;;;;;;28.22;29.04;100476.50;4811082;29;20417;-84
2021/06/04 06:40:16;;;;;;;1.95;1.63;;;;;;;28.18;28.55;100469.75;4807325;29;20043;-84
2021/06/04 06:42:44;;;;;;;2.65;1.70;;;;;;;28.74;28.96;100470.84;4811804;29;20055;-83
2021/06/04 06:45:13;;;;;;;3.65;1.88;;;;;;;28.84;28.59;100465.44;4827608;29;20032;-84
2021/06/04 06:47:43;;;;;;;2.67;1.77;;;;;;;29.15;28.21;100460.44;5052793;24;20070;-82
2021/06/04 06:50:16;;;;;;;2.90;1.70;;;;;;;28.98;28.12;100465.97;4819024;29;20570;-83
2021/06/04 07:36:18;;;;;;;3.53;2.10;;;;;;;30.48;27.18;100469.50;4800530;24;20232;-86
2021/06/04 07:38:45;;;;;;;10.50;3.88;;;;;;;30.89;26.17;100469.91;4706314;30;20133;-88
2021/06/04 07:41:14;;;;;;;6.45;2.50;;;;;;;31.53;25.54;100469.03;4718564;30;20033;-88
2021/06/04 07:43:45;;;;;;;2.30;2.20;;;;;;;31.03;26.17;100464.72;4911286;24;20041;-86
2021/06/04 07:46:15;;;;;;;2.58;2.28;;;;;;;31.63;25.37;100468.25;4792040;24;20184;-87
2021/06/04 07:48:44;;;;;;;3.00;2.00;;;;;;;31.74;25.25;100457.94;4921402;24;20040;-88
2021/06/04 07:56:43;;;;;;;2.70;2.30;;;;;;;31.49;25.67;100455.88;5100116;24;20060;-89
2021/06/04 08:02:04;;;;;;;4.50;2.40;;;;;;;32.59;25.16;100447.41;4732548;29;20072;-87
2021/06/04 08:04:36;;;;;;;5.57;2.10;;;;;;;32.01;24.59;100457.84;4757510;30;20048;-86
2021/06/04 08:13:01;;;;;;;10.45;3.00;;;;;;;31.24;24.80;100443.38;5699705;24;21534;-88
2021/06/04 08:19:11;;;;;;;3.88;2.45;;;;;;;31.77;24.51;100429.44;5333560;24;20120;31
2021/06/04 08:30:35;;;;;;;4.80;2.55;;;;;;;31.79;24.15;100419.69;5792506;24;21374;-87
2021/06/04 08:49:56;;;;;;;6.75;2.20;;;;;;;31.82;24.23;100396.78;5724214;24;20274;-86
2021/06/04 09:40:33;;;;;;;2.95;1.90;;;;;;;32.92;22.91;100344.31;5450777;24;20060;-89
2021/06/04 09:46:06;;;;;;;5.50;2.10;;;;;;;32.75;22.92;100317.44;5562788;24;20123;-87
2021/06/04 13:13:51;;;;;;;5.78;0.52;;;;;;;24.68;29.37;100183.03;4965170;24;20408;-91
2021/06/04 13:16:32;;;;;;;4.45;0.73;;;;;;;24.73;29.61;100180.41;5472164;24;20117;-87
2021/06/04 13:19:15;;;;;;;4.05;0.70;;;;;;;24.74;30.12;100178.47;5335004;24;21205;-88
2021/06/04 13:28:19;;;;;;;1.95;0.70;;;;;;;24.23;30.14;100171.34;5503979;24;20052;-90
2021/06/04 13:36:53;;;;;;;6.22;1.00;;;;;;;23.87;30.39;100169.34;5082203;24;20063;-87
2021/06/04 13:39:31;;;;;;;5.47;1.23;;;;;;;23.80;31.02;100166.66;4750770;30;20064;-87
2021/06/04 13:42:06;;;;;;;5.63;0.82;;;;;;;23.92;31.19;100175.06;4773023;30;20044;-88
2021/06/04 13:44:34;;;;;;;2.90;0.80;;;;;;;23.82;30.87;100162.59;4785439;30;20044;-88
2021/06/04 13:47:09;;;;;;;5.55;0.95;;;;;;;23.84;31.19;100170.69;4773769;30;20087;-88
2021/06/04 13:49:51;;;;;;;3.75;0.90;;;;;;;23.78;31.46;100166.88;4746622;30;20055;-87
2021/06/04 13:52:23;;;;;;;5.38;0.88;;;;;;;23.63;31.49;100168.25;4765753;30;20089;-88
2021/06/04 13:55:02;;;;;;;4.82;0.75;;;;;;;23.59;31.50;100174.22;4769894;30;20061;-88
2021/06/04 13:57:32;;;;;;;3.90;0.77;;;;;;;23.66;31.43;100168.66;4776769;30;20020;-88
2021/06/04 14:00:19;;;;;;;4.60;0.75;;;;;;;23.65;31.09;100177.16;4786263;30;20154;-87
2021/06/04 14:03:05;;;;;;;2.00;0.60;;;;;;;23.59;31.18;100176.16;4771628;30;20126;-88
2021/06/04 14:45:04;;;;;;;3.95;1.20;;;;;;;22.59;33.43;100156.47;6189507;22;891141;-85
2021/06/04 14:51:12;;;;;;;3.17;0.60;;;;;;;22.48;33.93;100166.25;6211497;22;20020;31
2021/06/04 15:18:13;;;;;;;4.18;0.90;;;;;;;22.01;34.01;100167.38;6225675;22;20036;-90
2021/06/04 15:27:12;;;;;;;3.75;0.77;;;;;;;21.98;33.95;100174.19;6216330;22;20044;-88
2021/06/04 15:29:39;;;;;;;5.63;0.93;;;;;;;21.90;34.10;100164.25;6233904;22;20024;-89
2021/06/04 15:35:19;;;;;;;2.17;0.60;;;;;;;21.88;34.59;100171.00;6213592;22;20035;-89
2021/06/04 15:50:04;;;;;;;4.72;0.80;;;;;;;21.55;34.62;100182.00;6218632;22;20024;31
2021/06/04 15:55:49;;;;;;;3.58;0.63;;;;;;;21.57;34.19;100185.38;6217026;22;20024;-89
2021/06/04 16:01:24;;;;;;;2.25;0.98;;;;;;;21.44;34.63;100180.72;6247050;22;20008;-88
2021/06/04 16:25:25;;;;;;;4.32;0.68;;;;;;;21.14;35.88;100175.53;6261734;22;20314;-88
2021/06/04 16:27:56;;;;;;;5.47;0.95;;;;;;;21.06;35.65;100188.59;6231793;22;20016;-89
2021/06/04 16:30:26;;;;;;;4.25;0.95;;;;;;;21.01;36.00;100174.66;6236686;22;20056;-89
2021/06/04 16:33:14;;;;;;;1.55;0.70;;;;;;;21.01;35.87;100180.16;6158140;22;20673;31
2021/06/04 16:35:47;;;;;;;3.38;0.77;;;;;;;20.81;36.31;100180.94;6213816;22;20024;-88
2021/06/04 16:38:13;;;;;;;3.67;0.70;;;;;;;20.84;35.97;100179.66;6162440;23;20040;-89
2021/06/04 16:40:55;;;;;;;1.65;0.70;;;;;;;20.77;36.28;100185.13;6213469;22;20004;-88
2021/06/04 16:43:28;;;;;;;1.90;0.83;;;;;;;20.67;36.49;100173.69;6161725;22;21122;31
2021/06/04 16:45:58;;;;;;;3.08;0.95;;;;;;;20.62;36.44;100170.66;6183578;23;20005;-90
2021/06/04 16:55:23;;;;;;;2.90;0.65;;;;;;;20.38;36.55;100170.09;6236008;22;20031;-87
2021/06/04 16:57:58;;;;;;;1.88;0.93;;;;;;;20.40;36.80;100167.16;6191721;22;20732;31
2021/06/04 17:00:31;;;;;;;4.90;0.95;;;;;;;20.34;37.19;100166.06;6244878;22;20019;-88
2021/06/04 17:08:25;;;;;;;4.38;0.90;;;;;;;20.19;37.34;100170.84;6190405;22;20015;31
2021/06/04 17:13:52;;;;;;;5.10;1.00;;;;;;;20.14;37.81;100173.31;6190456;22;20142;-88
2021/06/04 17:16:29;;;;;;;4.22;0.95;;;;;;;20.05;38.17;100169.06;6186129;23;20031;-88
2021/06/04 17:22:36;;;;;;;2.25;0.82;;;;;;;19.84;38.20;100173.53;6206100;22;20832;31
2021/06/04 17:25:45;;;;;;;1.63;0.80;;;;;;;19.75;38.82;100169.25;6175286;22;20027;-86
2021/06/04 17:37:25;;;;;;;3.50;0.90;;;;;;;19.44;38.97;100177.78;6211336;22;20288;-89
2021/06/04 17:52:38;;;;;;;2.85;1.00;;;;;;;19.04;39.83;100167.22;6205428;22;20064;-87
2021/06/04 18:04:14;;;;;;;5.57;1.37;;;;;;;18.84;40.37;100170.81;6203090;22;20086;-84
2021/06/04 18:06:44;;;;;;;1.75;1.00;;;;;;;18.86;40.36;100174.19;6163581;23;20017;-84
2021/06/04 18:09:11;;;;;;;3.28;1.10;;;;;;;18.83;40.30;100178.19;6138968;23;20048;-85
2021/06/04 18:11:41;;;;;;;3.03;1.00;;;;;;;18.86;39.92;100179.66;6169296;23;20021;-87
2021/06/04 18:14:09;;;;;;;5.97;1.58;;;;;;;18.83;40.36;100174.56;6164007;23;20105;-84
2021/06/04 18:16:39;;;;;;;3.72;1.08;;;;;;;18.88;40.39;100181.19;6161261;23;20021;-87
2021/06/04 18:19:06;;;;;;;2.13;1.05;;;;;;;18.82;40.74;100178.34;6171375;23;20025;-86
2021/06/04 18:21:35;;;;;;;4.90;1.77;;;;;;;18.82;41.35;100179.19;6168801;23;20037;-86
2021/06/04 18:24:04;;;;;;;3.30;1.10;;;;;;;18.78;40.68;100177.88;6175909;23;20021;-87
2021/06/04 18:26:31;;;;;;;1.73;1.10;;;;;;;18.79;40.75;100185.06;6174586;22;20013;-83
2021/06/04 18:28:59;;;;;;;2.10;1.10;;;;;;;18.78;40.97;100183.38;6150497;23;20519;-87
2021/06/04 18:31:29;;;;;;;3.70;1.20;;;;;;;18.78;40.45;100183.38;6169563;23;20008;-85
2021/06/04 18:33:56;;;;;;;3.00;1.20;;;;;;;18.72;41.55;100174.03;6193152;23;20081;-88
2021/06/04 18:37:01;;;;;;;3.13;1.02;;;;;;;18.72;40.92;100186.84;6178132;22;20044;31
2021/06/04 18:39:30;;;;;;;1.98;1.30;;;;;;;18.75;41.18;100183.75;6133087;23;20016;-85
2021/06/04 18:42:02;;;;;;;2.67;1.20;;;;;;;18.69;42.34;100176.28;6180240;23;20021;-90
2021/06/04 18:44:32;;;;;;;3.88;1.58;;;;;;;18.74;40.82;100193.00;6141541;22;20029;-88
2021/06/04 18:47:02;;;;;;;2.80;1.15;;;;;;;18.66;41.32;100182.13;6150714;23;20001;-88
2021/06/04 18:49:29;;;;;;;5.30;1.30;;;;;;;18.65;43.83;100188.63;6130929;22;20966;-86
2021/06/04 18:52:02;;;;;;;4.40;2.80;;;;;;;18.62;42.19;100189.03;6175923;23;20042;-86
2021/06/04 18:54:39;;;;;;;2.80;1.67;;;;;;;18.58;41.80;100179.50;6194083;23;20036;-87
2021/06/04 19:03:25;;;;;;;4.25;1.50;;;;;;;18.48;41.95;100183.38;6171774;22;20016;-86
2021/06/04 19:05:59;;;;;;;6.85;1.77;;;;;;;18.43;42.14;100179.47;6195341;23;20029;-86
2021/06/04 19:08:27;;;;;;;4.55;1.42;;;;;;;18.39;42.08;100176.31;6153330;23;20017;-86
2021/06/04 19:10:59;;;;;;;5.15;1.50;;;;;;;18.47;41.96;100192.63;6128346;22;20002;31
2021/06/04 19:13:31;;;;;;;3.22;1.67;;;;;;;18.38;42.73;100185.53;6139757;22;19908;-86
2021/06/04 19:16:00;;;;;;;5.47;2.05;;;;;;;18.33;42.16;100176.22;6131220;23;20550;-86
2021/06/04 19:24:37;;;;;;;4.45;1.60;;;;;;;18.22;43.08;100188.47;6208795;22;20012;-86
2021/06/04 19:30:08;;;;;;;3.38;1.70;;;;;;;18.12;42.60;100183.25;6165400;23;20044;-85
2021/06/04 19:32:35;;;;;;;4.93;1.55;;;;;;;18.05;42.97;100177.69;6156470;23;20032;-85
2021/06/04 19:35:05;;;;;;;5.65;1.80;;;;;;;17.99;42.90;100167.50;6155165;23;20127;-87
2021/06/04 19:37:37;;;;;;;3.25;1.30;;;;;;;18.06;43.27;100182.13;6175403;23;20025;-87
2021/06/04 19:40:08;;;;;;;8.00;1.70;;;;;;;18.01;43.41;100170.88;6146782;23;20033;-87
2021/06/04 19:48:45;;;;;;;5.13;2.10;;;;;;;17.82;43.42;100171.44;6207905;22;20024;-87
2021/06/04 19:51:32;;;;;;;3.03;1.63;;;;;;;17.74;43.70;100163.28;6175090;23;20025;-85
2021/06/04 20:00:15;;;;;;;4.47;1.97;;;;;;;17.71;43.95;100163.63;6207596;22;20009;-86
2021/06/04 20:06:01;;;;;;;3.80;1.50;;;;;;;17.73;44.00;100164.28;6205664;22;20036;-84
2021/06/04 20:08:36;;;;;;;5.22;1.88;;;;;;;17.72;44.27;100157.97;6179564;23;20052;-84
2021/06/04 20:11:25;;;;;;;;;;;;;;;;;;;;;
2021/06/04 20:13:55;;;;;;;3.65;1.75;;;;;;;17.68;46.04;100153.06;6206483;23;20077;-88
2021/06/04 20:26:16;;;;;;;2.47;1.70;;;;;;;17.49;44.93;100155.28;6203829;22;20021;-85
2021/06/04 20:28:46;;;;;;;4.15;1.35;;;;;;;17.57;44.96;100151.63;6162490;23;20020;-85
2021/06/04 20:31:21;;;;;;;3.20;1.70;;;;;;;17.52;44.75;100157.66;6146642;22;20084;-87
2021/06/04 20:33:51;;;;;;;7.07;1.52;;;;;;;17.49;44.52;100160.75;6133999;23;20036;-85
2021/06/04 20:36:23;;;;;;;3.63;1.63;;;;;;;17.45;45.27;100164.03;6127462;23;20036;-87
2021/06/04 20:38:51;;;;;;;5.20;1.50;;;;;;;17.42;45.32;100146.09;6125192;23;20028;-87
2021/06/04 20:41:19;;;;;;;5.07;1.60;;;;;;;17.43;45.10;100150.53;6179209;23;20024;-88
2021/06/04 20:43:48;;;;;;;3.50;1.48;;;;;;;17.34;45.39;100147.03;6137157;23;20355;-85
2021/06/04 20:46:17;;;;;;;3.08;1.58;;;;;;;17.32;45.22;100153.69;6148260;23;20077;-85
2021/06/04 20:48:51;;;;;;;2.77;2.03;;;;;;;17.27;45.25;100139.75;6125698;23;20045;-88
2021/06/04 20:51:25;;;;;;;6.95;2.17;;;;;;;17.31;45.70;100146.53;6145824;23;20005;-86
2021/06/04 20:53:56;;;;;;;5.43;2.40;;;;;;;17.23;46.47;100138.41;6118219;23;20021;-84
2021/06/04 20:56:45;;;;;;;4.80;1.80;;;;;;;17.26;45.57;100138.06;6146456;23;20033;-82
2021/06/04 20:59:11;;;;;;;4.47;1.75;;;;;;;17.28;45.50;100133.25;6121462;23;20026;-84
2021/06/04 21:01:39;;;;;;;3.78;1.60;;;;;;;17.23;45.63;100135.69;6121463;23;20149;-84
2021/06/04 21:04:07;;;;;;;4.43;1.70;;;;;;;17.23;45.68;100132.94;6144681;23;20028;-85
2021/06/04 21:06:36;;;;;;;2.10;1.35;;;;;;;17.15;46.60;100127.53;6118776;23;20017;-87
2021/06/04 21:09:14;;;;;;;4.75;1.67;;;;;;;17.10;46.14;100118.00;6092004;23;20073;-86
2021/06/04 21:11:43;;;;;;;5.63;1.92;;;;;;;17.01;47.09;100129.19;6120884;23;20105;-85
2021/06/04 21:14:11;;;;;;;3.03;1.98;;;;;;;17.01;46.57;100134.66;6122288;23;20144;-85
2021/06/04 21:16:45;;;;;;;5.95;2.10;;;;;;;16.89;46.55;100126.00;6141783;23;20022;-84